Lint, Belgium
Current Conditions -  °F | °C
As of 3:20 AM on Monday 24 Nov 2014 (Local Time) from EBAW Reporting Station
Rain Showers Rain Showers  
Wind Chill: 45°   Ceiling: 1800
Heat Index: 48°   Visibility: 6mi
Dew Point: 45°   Wind: 8mph
Humidity: 87%   Direction: 300°WNW
Pressure: 30.12"   Gusts: NA
Location:  51.13°N, 4.5°E
Report Text: EBAW 240220Z AUTO 30007KT 9999 -SHRA FEW013/// SCT015/// BKN018/// 09/07 Q1020
Loading
Personal Weather Stations






























Interactive Weather Map New forecast layout! Learn more

10-Day Weather Forecast

Advertisements
Track Severe Weather on mobile